sensor_id;sensor_type;location;lat;lon;timestamp;P1;durP1;ratioP1;P2;durP2;ratioP2
62509;SDS011;48558;48.242;11.654;2023-08-31T00:02:47;2.95;;;1.48;;
62509;SDS011;48558;48.242;11.654;2023-08-31T00:06:59;1.60;;;1.50;;
62509;SDS011;48558;48.242;11.654;2023-08-31T00:11:12;1.60;;;1.50;;
62509;SDS011;48558;48.242;11.654;2023-08-31T00:15:27;2.67;;;1.50;;
62509;SDS011;48558;48.242;11.654;2023-08-31T00:19:40;1.80;;;1.70;;
62509;SDS011;48558;48.242;11.654;2023-08-31T00:23:53;1.50;;;1.50;;
62509;SDS011;48558;48.242;11.654;2023-08-31T00:28:06;1.60;;;1.50;;
62509;SDS011;48558;48.242;11.654;2023-08-31T00:32:21;1.60;;;1.50;;
62509;SDS011;48558;48.242;11.654;2023-08-31T00:36:34;1.80;;;1.38;;
62509;SDS011;48558;48.242;11.654;2023-08-31T00:40:47;1.52;;;1.45;;
62509;SDS011;48558;48.242;11.654;2023-08-31T00:45:00;1.70;;;1.60;;
62509;SDS011;48558;48.242;11.654;2023-08-31T00:49:14;1.60;;;1.50;;
62509;SDS011;48558;48.242;11.654;2023-08-31T00:53:27;1.85;;;1.70;;
62509;SDS011;48558;48.242;11.654;2023-08-31T00:57:39;1.60;;;1.50;;
62509;SDS011;48558;48.242;11.654;2023-08-31T01:15:29;2.15;;;1.95;;
62509;SDS011;48558;48.242;11.654;2023-08-31T01:19:48;1.35;;;1.35;;
62509;SDS011;48558;48.242;11.654;2023-08-31T01:24:04;2.80;;;1.80;;
62509;SDS011;48558;48.242;11.654;2023-08-31T01:28:18;1.52;;;1.42;;
62509;SDS011;48558;48.242;11.654;2023-08-31T01:32:30;1.67;;;1.58;;
62509;SDS011;48558;48.242;11.654;2023-08-31T01:36:46;2.25;;;2.10;;
62509;SDS011;48558;48.242;11.654;2023-08-31T01:41:09;2.08;;;1.90;;
62509;SDS011;48558;48.242;11.654;2023-08-31T01:45:26;1.67;;;1.58;;
62509;SDS011;48558;48.242;11.654;2023-08-31T01:49:39;1.88;;;1.77;;
62509;SDS011;48558;48.242;11.654;2023-08-31T01:53:52;1.80;;;1.70;;
62509;SDS011;48558;48.242;11.654;2023-08-31T01:58:05;2.72;;;1.80;;
62509;SDS011;48558;48.242;11.654;2023-08-31T02:02:17;1.90;;;1.80;;
62509;SDS011;48558;48.242;11.654;2023-08-31T02:06:30;2.00;;;1.90;;
62509;SDS011;48558;48.242;11.654;2023-08-31T02:10:43;2.92;;;1.98;;
62509;SDS011;48558;48.242;11.654;2023-08-31T02:14:56;4.45;;;2.13;;
62509;SDS011;48558;48.242;11.654;2023-08-31T02:19:09;2.33;;;2.22;;
62509;SDS011;48558;48.242;11.654;2023-08-31T02:23:22;2.47;;;2.25;;
62509;SDS011;48558;48.242;11.654;2023-08-31T02:27:34;3.90;;;2.28;;
62509;SDS011;48558;48.242;11.654;2023-08-31T02:31:47;2.20;;;2.10;;
62509;SDS011;48558;48.242;11.654;2023-08-31T02:36:00;2.53;;;2.33;;
62509;SDS011;48558;48.242;11.654;2023-08-31T02:40:12;2.30;;;2.20;;
62509;SDS011;48558;48.242;11.654;2023-08-31T02:44:25;3.00;;;2.60;;
62509;SDS011;48558;48.242;11.654;2023-08-31T02:48:37;2.30;;;2.20;;
62509;SDS011;48558;48.242;11.654;2023-08-31T02:52:50;2.45;;;2.25;;
62509;SDS011;48558;48.242;11.654;2023-08-31T02:57:03;2.45;;;2.35;;
62509;SDS011;48558;48.242;11.654;2023-08-31T03:01:16;2.40;;;2.30;;
62509;SDS011;48558;48.242;11.654;2023-08-31T03:05:28;2.75;;;2.53;;
62509;SDS011;48558;48.242;11.654;2023-08-31T03:09:42;2.47;;;2.33;;
62509;SDS011;48558;48.242;11.654;2023-08-31T03:13:55;3.05;;;2.10;;
62509;SDS011;48558;48.242;11.654;2023-08-31T03:18:08;3.00;;;2.28;;
62509;SDS011;48558;48.242;11.654;2023-08-31T03:22:20;2.58;;;2.38;;
62509;SDS011;48558;48.242;11.654;2023-08-31T03:26:33;2.80;;;2.60;;
62509;SDS011;48558;48.242;11.654;2023-08-31T03:30:46;3.08;;;2.88;;
62509;SDS011;48558;48.242;11.654;2023-08-31T03:35:07;3.03;;;2.70;;
62509;SDS011;48558;48.242;11.654;2023-08-31T03:39:20;3.03;;;2.83;;
62509;SDS011;48558;48.242;11.654;2023-08-31T03:43:33;4.38;;;2.78;;
62509;SDS011;48558;48.242;11.654;2023-08-31T03:47:45;4.78;;;3.05;;
62509;SDS011;48558;48.242;11.654;2023-08-31T03:51:59;3.92;;;3.25;;
62509;SDS011;48558;48.242;11.654;2023-08-31T03:56:12;3.17;;;2.80;;
62509;SDS011;48558;48.242;11.654;2023-08-31T04:00:24;3.58;;;3.10;;
62509;SDS011;48558;48.242;11.654;2023-08-31T04:04:37;3.45;;;3.15;;
62509;SDS011;48558;48.242;11.654;2023-08-31T04:08:49;3.95;;;3.00;;
62509;SDS011;48558;48.242;11.654;2023-08-31T04:13:02;3.75;;;3.00;;
62509;SDS011;48558;48.242;11.654;2023-08-31T04:17:15;3.28;;;3.05;;
62509;SDS011;48558;48.242;11.654;2023-08-31T04:21:27;3.33;;;3.03;;
62509;SDS011;48558;48.242;11.654;2023-08-31T04:25:40;2.60;;;2.40;;
62509;SDS011;48558;48.242;11.654;2023-08-31T04:29:54;6.03;;;2.78;;
62509;SDS011;48558;48.242;11.654;2023-08-31T04:34:06;2.63;;;2.42;;
62509;SDS011;48558;48.242;11.654;2023-08-31T04:38:19;2.70;;;2.50;;
62509;SDS011;48558;48.242;11.654;2023-08-31T04:42:32;2.88;;;2.60;;
62509;SDS011;48558;48.242;11.654;2023-08-31T04:46:45;2.67;;;2.33;;
62509;SDS011;48558;48.242;11.654;2023-08-31T04:50:58;3.75;;;2.47;;
62509;SDS011;48558;48.242;11.654;2023-08-31T04:55:12;3.30;;;3.00;;
62509;SDS011;48558;48.242;11.654;2023-08-31T04:59:25;3.03;;;2.67;;
62509;SDS011;48558;48.242;11.654;2023-08-31T05:03:40;2.75;;;2.55;;
62509;SDS011;48558;48.242;11.654;2023-08-31T05:07:52;4.85;;;2.90;;
62509;SDS011;48558;48.242;11.654;2023-08-31T05:12:05;2.83;;;2.55;;
62509;SDS011;48558;48.242;11.654;2023-08-31T05:16:22;3.00;;;2.67;;
62509;SDS011;48558;48.242;11.654;2023-08-31T05:20:35;2.67;;;2.47;;
62509;SDS011;48558;48.242;11.654;2023-08-31T05:24:48;3.35;;;2.38;;
62509;SDS011;48558;48.242;11.654;2023-08-31T05:29:00;2.33;;;2.13;;
62509;SDS011;48558;48.242;11.654;2023-08-31T05:33:16;3.25;;;2.40;;
62509;SDS011;48558;48.242;11.654;2023-08-31T05:37:32;3.35;;;2.67;;
62509;SDS011;48558;48.242;11.654;2023-08-31T05:41:46;2.95;;;2.30;;
62509;SDS011;48558;48.242;11.654;2023-08-31T05:45:58;2.58;;;2.33;;
62509;SDS011;48558;48.242;11.654;2023-08-31T05:50:11;2.35;;;2.15;;
62509;SDS011;48558;48.242;11.654;2023-08-31T05:54:24;1.70;;;1.60;;
62509;SDS011;48558;48.242;11.654;2023-08-31T05:58:36;2.63;;;1.83;;
62509;SDS011;48558;48.242;11.654;2023-08-31T06:02:49;2.08;;;1.92;;
62509;SDS011;48558;48.242;11.654;2023-08-31T06:07:01;3.22;;;1.88;;
62509;SDS011;48558;48.242;11.654;2023-08-31T06:11:15;1.90;;;1.80;;
62509;SDS011;48558;48.242;11.654;2023-08-31T06:15:27;3.45;;;1.70;;
62509;SDS011;48558;48.242;11.654;2023-08-31T06:19:40;2.15;;;1.88;;
62509;SDS011;48558;48.242;11.654;2023-08-31T06:23:54;1.80;;;1.70;;
62509;SDS011;48558;48.242;11.654;2023-08-31T06:28:07;1.60;;;1.50;;
62509;SDS011;48558;48.242;11.654;2023-08-31T06:32:23;1.80;;;1.70;;
62509;SDS011;48558;48.242;11.654;2023-08-31T06:36:35;2.03;;;1.85;;
62509;SDS011;48558;48.242;11.654;2023-08-31T06:40:48;3.03;;;1.90;;
62509;SDS011;48558;48.242;11.654;2023-08-31T06:45:01;1.90;;;1.60;;
62509;SDS011;48558;48.242;11.654;2023-08-31T06:49:15;4.75;;;1.92;;
62509;SDS011;48558;48.242;11.654;2023-08-31T06:53:28;1.80;;;1.70;;
62509;SDS011;48558;48.242;11.654;2023-08-31T06:57:40;4.18;;;1.70;;
62509;SDS011;48558;48.242;11.654;2023-08-31T07:01:53;1.73;;;1.63;;
62509;SDS011;48558;48.242;11.654;2023-08-31T07:06:06;2.65;;;1.65;;
62509;SDS011;48558;48.242;11.654;2023-08-31T07:10:19;1.70;;;1.60;;
62509;SDS011;48558;48.242;11.654;2023-08-31T07:14:32;1.80;;;1.67;;
62509;SDS011;48558;48.242;11.654;2023-08-31T07:18:45;1.35;;;1.30;;
62509;SDS011;48558;48.242;11.654;2023-08-31T07:22:57;1.10;;;1.10;;
62509;SDS011;48558;48.242;11.654;2023-08-31T07:27:11;2.55;;;1.40;;
62509;SDS011;48558;48.242;11.654;2023-08-31T07:31:24;2.33;;;1.60;;
62509;SDS011;48558;48.242;11.654;2023-08-31T07:35:36;2.20;;;1.60;;
62509;SDS011;48558;48.242;11.654;2023-08-31T07:39:50;4.22;;;1.45;;
62509;SDS011;48558;48.242;11.654;2023-08-31T07:44:03;1.63;;;1.52;;
62509;SDS011;48558;48.242;11.654;2023-08-31T07:48:16;1.70;;;1.60;;
62509;SDS011;48558;48.242;11.654;2023-08-31T07:52:29;1.60;;;1.50;;
62509;SDS011;48558;48.242;11.654;2023-08-31T07:56:41;3.42;;;1.70;;
62509;SDS011;48558;48.242;11.654;2023-08-31T08:00:55;1.60;;;1.40;;
62509;SDS011;48558;48.242;11.654;2023-08-31T08:05:08;2.22;;;1.70;;
62509;SDS011;48558;48.242;11.654;2023-08-31T08:09:22;1.40;;;1.30;;
62509;SDS011;48558;48.242;11.654;2023-08-31T08:13:34;2.25;;;1.30;;
62509;SDS011;48558;48.242;11.654;2023-08-31T08:17:47;2.22;;;1.48;;
62509;SDS011;48558;48.242;11.654;2023-08-31T08:22:00;2.47;;;1.38;;
62509;SDS011;48558;48.242;11.654;2023-08-31T08:26:13;1.35;;;1.25;;
62509;SDS011;48558;48.242;11.654;2023-08-31T08:30:28;1.38;;;1.27;;
62509;SDS011;48558;48.242;11.654;2023-08-31T08:34:41;1.90;;;1.35;;
62509;SDS011;48558;48.242;11.654;2023-08-31T08:38:54;1.85;;;1.42;;
62509;SDS011;48558;48.242;11.654;2023-08-31T08:43:07;1.83;;;1.27;;
62509;SDS011;48558;48.242;11.654;2023-08-31T08:47:20;2.75;;;1.60;;
62509;SDS011;48558;48.242;11.654;2023-08-31T08:51:33;3.03;;;1.27;;
62509;SDS011;48558;48.242;11.654;2023-08-31T08:55:46;3.05;;;1.40;;
62509;SDS011;48558;48.242;11.654;2023-08-31T08:59:59;2.20;;;1.60;;
62509;SDS011;48558;48.242;11.654;2023-08-31T09:04:11;1.60;;;1.50;;
62509;SDS011;48558;48.242;11.654;2023-08-31T09:08:25;2.63;;;1.45;;
62509;SDS011;48558;48.242;11.654;2023-08-31T09:12:39;2.00;;;1.42;;
62509;SDS011;48558;48.242;11.654;2023-08-31T09:16:52;2.58;;;1.55;;
62509;SDS011;48558;48.242;11.654;2023-08-31T09:21:05;4.20;;;1.70;;
62509;SDS011;48558;48.242;11.654;2023-08-31T09:25:18;4.63;;;1.92;;
62509;SDS011;48558;48.242;11.654;2023-08-31T09:29:32;3.03;;;1.58;;
62509;SDS011;48558;48.242;11.654;2023-08-31T09:33:51;2.50;;;1.80;;
62509;SDS011;48558;48.242;11.654;2023-08-31T09:38:04;6.32;;;1.80;;
62509;SDS011;48558;48.242;11.654;2023-08-31T09:42:20;5.68;;;1.50;;
62509;SDS011;48558;48.242;11.654;2023-08-31T09:46:33;2.20;;;1.42;;
62509;SDS011;48558;48.242;11.654;2023-08-31T09:50:46;1.58;;;1.35;;
62509;SDS011;48558;48.242;11.654;2023-08-31T09:55:01;6.13;;;1.50;;
62509;SDS011;48558;48.242;11.654;2023-08-31T09:59:16;1.65;;;1.52;;
62509;SDS011;48558;48.242;11.654;2023-08-31T10:03:29;1.55;;;1.45;;
62509;SDS011;48558;48.242;11.654;2023-08-31T10:07:42;2.65;;;1.88;;
62509;SDS011;48558;48.242;11.654;2023-08-31T10:11:56;4.18;;;1.70;;
62509;SDS011;48558;48.242;11.654;2023-08-31T10:16:09;3.78;;;1.67;;
62509;SDS011;48558;48.242;11.654;2023-08-31T10:20:23;2.03;;;1.65;;
62509;SDS011;48558;48.242;11.654;2023-08-31T10:29:25;2.10;;;1.90;;
62509;SDS011;48558;48.242;11.654;2023-08-31T10:33:46;2.05;;;1.70;;
62509;SDS011;48558;48.242;11.654;2023-08-31T10:42:43;5.03;;;1.60;;
62509;SDS011;48558;48.242;11.654;2023-08-31T10:47:03;2.95;;;1.90;;
62509;SDS011;48558;48.242;11.654;2023-08-31T10:51:16;2.95;;;1.90;;
62509;SDS011;48558;48.242;11.654;2023-08-31T10:55:31;3.55;;;2.05;;
62509;SDS011;48558;48.242;11.654;2023-08-31T10:59:53;1.95;;;1.52;;
62509;SDS011;48558;48.242;11.654;2023-08-31T11:04:09;5.35;;;2.25;;
62509;SDS011;48558;48.242;11.654;2023-08-31T11:08:25;3.85;;;2.00;;
62509;SDS011;48558;48.242;11.654;2023-08-31T11:12:39;2.38;;;1.77;;
62509;SDS011;48558;48.242;11.654;2023-08-31T11:16:53;3.15;;;1.95;;
62509;SDS011;48558;48.242;11.654;2023-08-31T11:21:14;3.42;;;1.90;;
62509;SDS011;48558;48.242;11.654;2023-08-31T11:25:29;4.68;;;1.50;;
62509;SDS011;48558;48.242;11.654;2023-08-31T11:29:43;3.15;;;1.70;;
62509;SDS011;48558;48.242;11.654;2023-08-31T11:33:56;4.05;;;1.58;;
62509;SDS011;48558;48.242;11.654;2023-08-31T11:38:09;4.45;;;1.80;;
62509;SDS011;48558;48.242;11.654;2023-08-31T11:42:21;2.47;;;1.52;;
62509;SDS011;48558;48.242;11.654;2023-08-31T11:46:35;3.30;;;1.85;;
62509;SDS011;48558;48.242;11.654;2023-08-31T11:50:48;5.65;;;1.60;;
62509;SDS011;48558;48.242;11.654;2023-08-31T11:55:02;4.60;;;1.67;;
62509;SDS011;48558;48.242;11.654;2023-08-31T11:59:15;2.42;;;1.70;;
62509;SDS011;48558;48.242;11.654;2023-08-31T12:03:41;1.95;;;1.50;;
62509;SDS011;48558;48.242;11.654;2023-08-31T12:08:06;3.30;;;1.60;;
62509;SDS011;48558;48.242;11.654;2023-08-31T12:12:22;1.77;;;1.15;;
62509;SDS011;48558;48.242;11.654;2023-08-31T12:16:36;1.60;;;1.50;;
62509;SDS011;48558;48.242;11.654;2023-08-31T12:20:52;4.43;;;1.73;;
62509;SDS011;48558;48.242;11.654;2023-08-31T12:25:05;2.00;;;1.45;;
62509;SDS011;48558;48.242;11.654;2023-08-31T12:29:18;2.50;;;1.75;;
62509;SDS011;48558;48.242;11.654;2023-08-31T12:33:30;1.75;;;1.30;;
62509;SDS011;48558;48.242;11.654;2023-08-31T12:37:43;1.67;;;1.30;;
62509;SDS011;48558;48.242;11.654;2023-08-31T12:41:56;2.30;;;1.50;;
62509;SDS011;48558;48.242;11.654;2023-08-31T12:46:23;1.50;;;1.35;;
62509;SDS011;48558;48.242;11.654;2023-08-31T12:50:36;3.00;;;1.65;;
62509;SDS011;48558;48.242;11.654;2023-08-31T12:54:49;3.58;;;2.05;;
62509;SDS011;48558;48.242;11.654;2023-08-31T12:59:01;2.25;;;1.60;;
62509;SDS011;48558;48.242;11.654;2023-08-31T13:03:17;1.20;;;1.10;;
62509;SDS011;48558;48.242;11.654;2023-08-31T13:07:30;1.40;;;1.30;;
62509;SDS011;48558;48.242;11.654;2023-08-31T13:11:44;1.60;;;1.50;;
62509;SDS011;48558;48.242;11.654;2023-08-31T13:15:57;1.98;;;1.50;;
62509;SDS011;48558;48.242;11.654;2023-08-31T13:20:10;1.88;;;1.40;;
62509;SDS011;48558;48.242;11.654;2023-08-31T13:24:33;1.88;;;1.45;;
62509;SDS011;48558;48.242;11.654;2023-08-31T13:28:45;1.95;;;1.40;;
62509;SDS011;48558;48.242;11.654;2023-08-31T13:32:58;1.85;;;1.48;;
62509;SDS011;48558;48.242;11.654;2023-08-31T13:37:10;3.47;;;1.50;;
62509;SDS011;48558;48.242;11.654;2023-08-31T13:41:23;3.00;;;1.75;;
62509;SDS011;48558;48.242;11.654;2023-08-31T13:45:36;5.25;;;1.60;;
62509;SDS011;48558;48.242;11.654;2023-08-31T13:49:48;4.80;;;1.60;;
62509;SDS011;48558;48.242;11.654;2023-08-31T13:54:02;3.58;;;1.88;;
62509;SDS011;48558;48.242;11.654;2023-08-31T13:58:19;6.63;;;1.75;;
62509;SDS011;48558;48.242;11.654;2023-08-31T14:06:33;2.25;;;1.48;;
62509;SDS011;48558;48.242;11.654;2023-08-31T14:10:46;3.20;;;1.58;;
62509;SDS011;48558;48.242;11.654;2023-08-31T14:14:58;1.70;;;1.60;;
62509;SDS011;48558;48.242;11.654;2023-08-31T14:19:13;2.50;;;1.42;;
62509;SDS011;48558;48.242;11.654;2023-08-31T14:23:26;1.77;;;1.27;;
62509;SDS011;48558;48.242;11.654;2023-08-31T14:27:39;2.03;;;1.20;;
62509;SDS011;48558;48.242;11.654;2023-08-31T14:31:52;1.65;;;1.40;;
62509;SDS011;48558;48.242;11.654;2023-08-31T14:36:06;1.40;;;1.15;;
62509;SDS011;48558;48.242;11.654;2023-08-31T14:40:19;3.13;;;1.80;;
62509;SDS011;48558;48.242;11.654;2023-08-31T14:44:32;1.63;;;1.52;;
62509;SDS011;48558;48.242;11.654;2023-08-31T14:48:45;2.67;;;1.42;;
62509;SDS011;48558;48.242;11.654;2023-08-31T14:52:57;1.88;;;1.63;;
62509;SDS011;48558;48.242;11.654;2023-08-31T14:57:10;5.53;;;1.83;;
62509;SDS011;48558;48.242;11.654;2023-08-31T15:01:22;2.00;;;1.38;;
62509;SDS011;48558;48.242;11.654;2023-08-31T15:05:37;1.20;;;1.10;;
62509;SDS011;48558;48.242;11.654;2023-08-31T15:09:53;1.50;;;1.40;;
62509;SDS011;48558;48.242;11.654;2023-08-31T15:14:05;1.38;;;1.27;;
62509;SDS011;48558;48.242;11.654;2023-08-31T15:18:18;2.72;;;1.50;;
62509;SDS011;48558;48.242;11.654;2023-08-31T15:22:31;1.73;;;1.55;;
62509;SDS011;48558;48.242;11.654;2023-08-31T15:26:45;1.42;;;1.33;;
62509;SDS011;48558;48.242;11.654;2023-08-31T15:30:58;1.67;;;1.40;;
62509;SDS011;48558;48.242;11.654;2023-08-31T15:35:10;1.35;;;1.20;;
62509;SDS011;48558;48.242;11.654;2023-08-31T15:39:23;3.15;;;1.55;;
62509;SDS011;48558;48.242;11.654;2023-08-31T15:43:36;1.80;;;1.35;;
62509;SDS011;48558;48.242;11.654;2023-08-31T15:47:51;5.95;;;1.73;;
62509;SDS011;48558;48.242;11.654;2023-08-31T15:52:04;1.73;;;1.40;;
62509;SDS011;48558;48.242;11.654;2023-08-31T15:56:17;4.03;;;1.85;;
62509;SDS011;48558;48.242;11.654;2023-08-31T16:00:29;1.92;;;1.60;;
62509;SDS011;48558;48.242;11.654;2023-08-31T16:04:44;1.35;;;1.25;;
62509;SDS011;48558;48.242;11.654;2023-08-31T16:08:59;2.45;;;1.50;;
62509;SDS011;48558;48.242;11.654;2023-08-31T16:13:12;1.58;;;1.45;;
62509;SDS011;48558;48.242;11.654;2023-08-31T16:17:24;2.13;;;1.38;;
62509;SDS011;48558;48.242;11.654;2023-08-31T16:21:37;2.97;;;1.75;;
62509;SDS011;48558;48.242;11.654;2023-08-31T16:25:50;1.33;;;1.05;;
62509;SDS011;48558;48.242;11.654;2023-08-31T16:30:02;1.67;;;1.33;;
62509;SDS011;48558;48.242;11.654;2023-08-31T16:34:16;2.95;;;1.38;;
62509;SDS011;48558;48.242;11.654;2023-08-31T16:38:28;1.92;;;1.55;;
62509;SDS011;48558;48.242;11.654;2023-08-31T16:42:42;1.98;;;1.42;;
62509;SDS011;48558;48.242;11.654;2023-08-31T16:46:55;1.55;;;1.40;;
62509;SDS011;48558;48.242;11.654;2023-08-31T16:51:08;1.55;;;1.40;;
62509;SDS011;48558;48.242;11.654;2023-08-31T16:55:21;1.95;;;1.52;;
62509;SDS011;48558;48.242;11.654;2023-08-31T16:59:34;3.35;;;1.63;;
62509;SDS011;48558;48.242;11.654;2023-08-31T17:03:47;2.63;;;1.80;;
62509;SDS011;48558;48.242;11.654;2023-08-31T17:07:59;1.70;;;1.55;;
62509;SDS011;48558;48.242;11.654;2023-08-31T17:12:12;3.88;;;1.73;;
62509;SDS011;48558;48.242;11.654;2023-08-31T17:16:24;3.22;;;1.67;;
62509;SDS011;48558;48.242;11.654;2023-08-31T17:20:37;3.08;;;1.42;;
62509;SDS011;48558;48.242;11.654;2023-08-31T17:24:50;1.95;;;1.67;;
62509;SDS011;48558;48.242;11.654;2023-08-31T17:29:02;1.67;;;1.50;;
62509;SDS011;48558;48.242;11.654;2023-08-31T17:33:16;2.55;;;1.50;;
62509;SDS011;48558;48.242;11.654;2023-08-31T17:37:29;5.65;;;1.40;;
62509;SDS011;48558;48.242;11.654;2023-08-31T17:41:42;2.05;;;1.35;;
62509;SDS011;48558;48.242;11.654;2023-08-31T17:45:55;1.88;;;1.55;;
62509;SDS011;48558;48.242;11.654;2023-08-31T17:50:08;1.75;;;1.65;;
62509;SDS011;48558;48.242;11.654;2023-08-31T17:54:22;2.85;;;1.60;;
62509;SDS011;48558;48.242;11.654;2023-08-31T17:58:39;2.42;;;1.50;;
62509;SDS011;48558;48.242;11.654;2023-08-31T18:02:51;3.58;;;1.52;;
62509;SDS011;48558;48.242;11.654;2023-08-31T18:07:06;1.65;;;1.55;;
62509;SDS011;48558;48.242;11.654;2023-08-31T18:11:19;3.47;;;1.60;;
62509;SDS011;48558;48.242;11.654;2023-08-31T18:15:32;1.77;;;1.45;;
62509;SDS011;48558;48.242;11.654;2023-08-31T18:19:44;2.40;;;1.58;;
62509;SDS011;48558;48.242;11.654;2023-08-31T18:23:57;4.70;;;1.80;;
62509;SDS011;48558;48.242;11.654;2023-08-31T18:28:09;2.92;;;2.00;;
62509;SDS011;48558;48.242;11.654;2023-08-31T18:32:23;2.90;;;1.67;;
62509;SDS011;48558;48.242;11.654;2023-08-31T18:36:35;2.90;;;1.70;;
62509;SDS011;48558;48.242;11.654;2023-08-31T18:40:51;2.42;;;1.60;;
62509;SDS011;48558;48.242;11.654;2023-08-31T18:45:06;2.05;;;1.55;;
62509;SDS011;48558;48.242;11.654;2023-08-31T18:49:22;1.50;;;1.38;;
62509;SDS011;48558;48.242;11.654;2023-08-31T18:53:35;3.67;;;1.58;;
62509;SDS011;48558;48.242;11.654;2023-08-31T18:57:47;2.38;;;1.60;;
62509;SDS011;48558;48.242;11.654;2023-08-31T19:02:00;1.45;;;1.35;;
62509;SDS011;48558;48.242;11.654;2023-08-31T19:06:15;4.93;;;1.65;;
62509;SDS011;48558;48.242;11.654;2023-08-31T19:10:27;2.63;;;1.63;;
62509;SDS011;48558;48.242;11.654;2023-08-31T19:14:41;5.07;;;1.70;;
62509;SDS011;48558;48.242;11.654;2023-08-31T19:18:53;1.70;;;1.60;;
62509;SDS011;48558;48.242;11.654;2023-08-31T19:23:06;2.50;;;1.75;;
62509;SDS011;48558;48.242;11.654;2023-08-31T19:27:18;2.20;;;1.80;;
62509;SDS011;48558;48.242;11.654;2023-08-31T19:31:31;3.53;;;2.10;;
62509;SDS011;48558;48.242;11.654;2023-08-31T19:35:44;3.97;;;2.20;;
62509;SDS011;48558;48.242;11.654;2023-08-31T19:40:09;2.22;;;1.70;;
62509;SDS011;48558;48.242;11.654;2023-08-31T19:44:22;2.00;;;1.83;;
62509;SDS011;48558;48.242;11.654;2023-08-31T19:48:35;2.75;;;1.90;;
62509;SDS011;48558;48.242;11.654;2023-08-31T19:52:49;3.35;;;1.92;;
62509;SDS011;48558;48.242;11.654;2023-08-31T19:57:02;3.67;;;2.25;;
62509;SDS011;48558;48.242;11.654;2023-08-31T20:01:15;2.90;;;1.85;;
62509;SDS011;48558;48.242;11.654;2023-08-31T20:05:28;1.85;;;1.70;;
62509;SDS011;48558;48.242;11.654;2023-08-31T20:09:40;4.20;;;1.90;;
62509;SDS011;48558;48.242;11.654;2023-08-31T20:13:53;3.83;;;1.60;;
62509;SDS011;48558;48.242;11.654;2023-08-31T20:18:07;2.30;;;1.73;;
62509;SDS011;48558;48.242;11.654;2023-08-31T20:22:20;1.83;;;1.70;;
62509;SDS011;48558;48.242;11.654;2023-08-31T20:26:33;2.13;;;1.90;;
62509;SDS011;48558;48.242;11.654;2023-08-31T20:30:46;3.08;;;1.83;;
62509;SDS011;48558;48.242;11.654;2023-08-31T20:34:59;3.38;;;1.58;;
62509;SDS011;48558;48.242;11.654;2023-08-31T20:39:12;2.15;;;1.90;;
62509;SDS011;48558;48.242;11.654;2023-08-31T20:43:26;2.20;;;1.65;;
62509;SDS011;48558;48.242;11.654;2023-08-31T20:47:39;3.53;;;1.52;;
62509;SDS011;48558;48.242;11.654;2023-08-31T20:51:56;3.33;;;1.73;;
62509;SDS011;48558;48.242;11.654;2023-08-31T20:56:09;4.30;;;1.75;;
62509;SDS011;48558;48.242;11.654;2023-08-31T21:00:24;2.50;;;1.90;;
62509;SDS011;48558;48.242;11.654;2023-08-31T21:04:36;2.97;;;1.92;;
62509;SDS011;48558;48.242;11.654;2023-08-31T21:08:49;2.38;;;1.58;;
62509;SDS011;48558;48.242;11.654;2023-08-31T21:13:04;2.03;;;1.63;;
62509;SDS011;48558;48.242;11.654;2023-08-31T21:17:16;1.90;;;1.55;;
62509;SDS011;48558;48.242;11.654;2023-08-31T21:21:29;3.13;;;1.58;;
62509;SDS011;48558;48.242;11.654;2023-08-31T21:25:41;2.20;;;1.85;;
62509;SDS011;48558;48.242;11.654;2023-08-31T21:29:55;1.60;;;1.50;;
62509;SDS011;48558;48.242;11.654;2023-08-31T21:34:08;3.45;;;1.70;;
62509;SDS011;48558;48.242;11.654;2023-08-31T21:38:20;3.40;;;2.17;;
62509;SDS011;48558;48.242;11.654;2023-08-31T21:42:33;2.55;;;1.77;;
62509;SDS011;48558;48.242;11.654;2023-08-31T21:46:46;2.33;;;1.80;;
62509;SDS011;48558;48.242;11.654;2023-08-31T21:50:59;1.60;;;1.50;;
62509;SDS011;48558;48.242;11.654;2023-08-31T21:55:11;3.58;;;1.70;;
62509;SDS011;48558;48.242;11.654;2023-08-31T21:59:24;2.40;;;1.70;;
62509;SDS011;48558;48.242;11.654;2023-08-31T22:03:36;3.50;;;2.08;;
62509;SDS011;48558;48.242;11.654;2023-08-31T22:07:49;2.35;;;1.98;;
62509;SDS011;48558;48.242;11.654;2023-08-31T22:12:02;2.92;;;1.85;;
62509;SDS011;48558;48.242;11.654;2023-08-31T22:16:15;3.50;;;1.60;;
62509;SDS011;48558;48.242;11.654;2023-08-31T22:20:40;1.73;;;1.63;;
62509;SDS011;48558;48.242;11.654;2023-08-31T22:24:54;2.67;;;1.77;;
62509;SDS011;48558;48.242;11.654;2023-08-31T22:29:07;4.15;;;2.15;;
62509;SDS011;48558;48.242;11.654;2023-08-31T22:33:19;2.03;;;1.83;;
62509;SDS011;48558;48.242;11.654;2023-08-31T22:37:33;3.08;;;1.83;;
62509;SDS011;48558;48.242;11.654;2023-08-31T22:41:46;3.75;;;2.22;;
62509;SDS011;48558;48.242;11.654;2023-08-31T22:45:58;3.45;;;1.85;;
62509;SDS011;48558;48.242;11.654;2023-08-31T22:50:11;1.92;;;1.73;;
62509;SDS011;48558;48.242;11.654;2023-08-31T22:54:24;2.72;;;1.80;;
62509;SDS011;48558;48.242;11.654;2023-08-31T22:58:36;2.75;;;1.73;;
62509;SDS011;48558;48.242;11.654;2023-08-31T23:02:49;5.40;;;2.00;;
62509;SDS011;48558;48.242;11.654;2023-08-31T23:07:02;2.92;;;1.98;;
62509;SDS011;48558;48.242;11.654;2023-08-31T23:11:15;2.42;;;1.98;;
62509;SDS011;48558;48.242;11.654;2023-08-31T23:15:29;2.35;;;2.10;;
62509;SDS011;48558;48.242;11.654;2023-08-31T23:19:41;2.20;;;2.00;;
62509;SDS011;48558;48.242;11.654;2023-08-31T23:23:54;2.95;;;1.90;;
62509;SDS011;48558;48.242;11.654;2023-08-31T23:28:06;2.58;;;2.10;;
62509;SDS011;48558;48.242;11.654;2023-08-31T23:32:19;2.03;;;1.70;;
62509;SDS011;48558;48.242;11.654;2023-08-31T23:36:32;4.93;;;2.10;;
62509;SDS011;48558;48.242;11.654;2023-08-31T23:40:45;1.90;;;1.80;;
62509;SDS011;48558;48.242;11.654;2023-08-31T23:44:57;5.38;;;2.08;;
62509;SDS011;48558;48.242;11.654;2023-08-31T23:49:10;4.00;;;2.30;;
62509;SDS011;48558;48.242;11.654;2023-08-31T23:53:22;2.42;;;2.05;;
62509;SDS011;48558;48.242;11.654;2023-08-31T23:57:35;2.63;;;2.05;;
